createdAt,value
2018-09-01T00:00:23.381Z,69.84
2018-09-01T00:01:23.370Z,69.84
2018-09-01T00:02:23.358Z,70.24
2018-09-01T00:03:23.347Z,70.17
2018-09-01T00:04:23.336Z,70.28
2018-09-01T00:05:23.391Z,70.17
2018-09-01T00:06:23.317Z,70.28
2018-09-01T00:07:23.344Z,70.78
2018-09-01T00:08:23.292Z,70.28
2018-09-01T00:09:23.286Z,70.48
2018-09-01T00:10:23.340Z,70.38
2018-09-01T00:11:23.320Z,70.07
2018-09-01T00:12:23.248Z,69.87
2018-09-01T00:13:23.238Z,70.17
2018-09-01T00:14:23.228Z,69.97
2018-09-01T00:15:23.286Z,70.07
2018-09-01T00:16:23.211Z,70.28
2018-09-01T00:17:23.198Z,70.48
2018-09-01T00:18:23.198Z,70.28
2018-09-01T00:19:23.178Z,70.17
2018-09-01T00:20:23.716Z,68.85
2018-09-01T00:21:23.157Z,68.65
2018-09-01T00:22:31.271Z,68.85
2018-09-01T00:23:31.280Z,69.56
2018-09-01T00:24:31.295Z,69.56
2018-09-01T00:25:31.370Z,69.97
2018-09-01T00:26:31.240Z,69.26
2018-09-01T00:27:23.121Z,68.54
2018-09-01T00:28:23.086Z,69.76
2018-09-01T00:29:23.071Z,69.70
2018-09-01T00:30:31.361Z,69.56
2018-09-01T00:31:31.635Z,69.09
2018-09-01T00:32:31.137Z,68.57
2018-09-01T00:33:31.141Z,68.57
2018-09-01T00:34:31.652Z,68.27
2018-09-01T00:35:30.596Z,69.49
2018-09-01T00:36:22.997Z,68.98
2018-09-01T00:37:23.009Z,68.68
2018-09-01T00:38:22.981Z,69.80
2018-09-01T00:39:22.963Z,69.80
2018-09-01T00:40:23.019Z,70.00
2018-09-01T00:41:22.941Z,69.49
2018-09-01T00:42:22.933Z,68.48
2018-09-01T00:43:22.924Z,68.78
2018-09-01T00:44:22.910Z,68.37
2018-09-01T00:45:22.969Z,69.59
2018-09-01T00:46:23.565Z,70.41
2018-09-01T00:47:22.880Z,70.10
2018-09-01T00:48:22.869Z,70.24
2018-09-01T00:49:22.858Z,70.65
2018-09-01T00:50:23.565Z,70.24
2018-09-01T00:51:22.838Z,70.44
2018-09-01T00:52:22.827Z,70.65
2018-09-01T00:53:22.817Z,70.44
2018-09-01T00:54:22.808Z,70.34
2018-09-01T00:55:22.857Z,70.65
2018-09-01T00:56:23.570Z,71.06
2018-09-01T00:57:22.769Z,71.26
2018-09-01T00:58:22.761Z,70.85
2018-09-01T00:59:22.753Z,70.24
2018-09-01T01:00:22.812Z,70.14
2018-09-01T01:01:22.730Z,69.73
2018-09-01T01:02:22.719Z,70.24
2018-09-01T01:03:22.708Z,69.73
2018-09-01T01:04:22.703Z,69.02
2018-09-01T01:05:22.753Z,69.73
2018-09-01T01:06:22.681Z,68.64
2018-09-01T01:07:22.668Z,70.04
2018-09-01T01:08:22.653Z,70.48
2018-09-01T01:09:22.645Z,70.37
2018-09-01T01:10:22.704Z,70.14
2018-09-01T01:11:22.623Z,69.83
2018-09-01T01:12:22.614Z,70.57
2018-09-01T01:13:22.605Z,70.48
2018-09-01T01:14:22.592Z,70.68
2018-09-01T01:15:22.648Z,70.68
2018-09-01T01:16:22.572Z,70.78
2018-09-01T01:17:23.063Z,70.57
2018-09-01T01:18:22.551Z,70.98
2018-09-01T01:19:22.542Z,71.50
2018-09-01T01:20:22.592Z,71.53
2018-09-01T01:21:22.518Z,71.91
2018-09-01T01:22:22.507Z,71.94
2018-09-01T01:23:22.495Z,71.33
2018-09-01T01:24:22.484Z,71.84
2018-09-01T01:25:22.535Z,71.84
2018-09-01T01:26:22.462Z,72.14
2018-09-01T01:27:22.454Z,72.75
2018-09-01T01:28:22.448Z,72.34
2018-09-01T01:29:22.432Z,72.24
2018-09-01T01:30:22.485Z,71.73
2018-09-01T01:31:22.410Z,72.75
2018-09-01T01:32:22.399Z,72.65
2018-09-01T01:33:22.387Z,72.65
2018-09-01T01:34:22.377Z,72.99
2018-09-01T01:35:22.432Z,73.10
2018-09-01T01:36:22.358Z,72.89
2018-09-01T01:37:22.347Z,73.40
2018-09-01T01:38:23.062Z,72.99
2018-09-01T01:39:22.332Z,72.69
2018-09-01T01:40:22.379Z,73.10
2018-09-01T01:41:22.318Z,73.19
2018-09-01T01:42:22.294Z,74.22
2018-09-01T01:43:22.283Z,74.11
2018-09-01T01:44:22.274Z,74.42
2018-09-01T01:45:22.338Z,74.08
2018-09-01T01:46:22.250Z,74.22
2018-09-01T01:47:22.244Z,74.32
2018-09-01T01:48:22.234Z,74.11
2018-09-01T01:49:22.222Z,73.91
2018-09-01T01:50:22.206Z,73.71
2018-09-01T01:51:22.266Z,73.60
2018-09-01T01:52:22.187Z,74.11
2018-09-01T01:53:22.180Z,73.60
2018-09-01T01:54:22.167Z,73.60
2018-09-01T01:55:22.159Z,74.01
2018-09-01T01:56:22.212Z,74.05
2018-09-01T01:57:22.133Z,74.15
2018-09-01T01:58:22.123Z,73.84
2018-09-01T01:59:23.056Z,74.46
2018-09-01T02:00:22.098Z,74.15
2018-09-01T02:01:22.157Z,73.44
2018-09-01T02:02:22.081Z,73.94
2018-09-01T02:03:22.068Z,73.84
2018-09-01T02:04:22.059Z,74.66
2018-09-01T02:05:22.048Z,74.87
2018-09-01T02:06:22.104Z,74.66
2018-09-01T02:07:22.029Z,74.05
2018-09-01T02:08:22.015Z,74.05
2018-09-01T02:09:22.007Z,74.05
2018-09-01T02:10:21.998Z,73.64
2018-09-01T02:11:22.050Z,73.23
2018-09-01T02:12:21.973Z,73.44
2018-09-01T02:13:21.962Z,73.44
2018-09-01T02:14:21.954Z,73.64
2018-09-01T02:15:21.943Z,73.44
2018-09-01T02:16:21.995Z,73.74
2018-09-01T02:17:21.924Z,73.94
2018-09-01T02:18:21.912Z,73.33
2018-09-01T02:19:21.899Z,73.94
2018-09-01T02:20:22.553Z,73.23
2018-09-01T02:21:21.946Z,73.03
2018-09-01T02:22:21.866Z,72.41
2018-09-01T02:23:21.858Z,71.29
2018-09-01T02:24:21.846Z,71.29
2018-09-01T02:25:21.836Z,72.75
2018-09-01T02:26:21.890Z,71.39
2018-09-01T02:27:21.813Z,71.53
2018-09-01T02:28:21.808Z,72.82
2018-09-01T02:29:21.796Z,72.82
2018-09-01T02:30:21.786Z,72.21
2018-09-01T02:31:21.840Z,71.39
2018-09-01T02:32:21.764Z,71.94
2018-09-01T02:33:21.751Z,72.86
2018-09-01T02:34:21.746Z,72.52
2018-09-01T02:35:21.733Z,72.62
2018-09-01T02:36:21.787Z,72.41
2018-09-01T02:37:21.707Z,73.33
2018-09-01T02:38:21.697Z,73.98
2018-09-01T02:39:21.689Z,74.08
2018-09-01T02:40:21.677Z,73.27
2018-09-01T02:41:22.125Z,73.57
2018-09-01T02:42:21.660Z,73.88
2018-09-01T02:43:21.648Z,73.88
2018-09-01T02:44:21.633Z,74.11
2018-09-01T02:45:21.622Z,74.18
2018-09-01T02:46:21.680Z,74.29
2018-09-01T02:47:21.603Z,73.98
2018-09-01T02:48:21.601Z,74.18
2018-09-01T02:49:21.586Z,74.39
2018-09-01T02:50:21.575Z,73.88
2018-09-01T02:51:21.625Z,74.22
2018-09-01T02:52:21.553Z,75.65
2018-09-01T02:53:21.545Z,75.55
2018-09-01T02:54:21.533Z,74.22
2018-09-01T02:55:21.526Z,74.52
2018-09-01T02:56:21.578Z,74.39
2018-09-01T02:57:21.503Z,74.63
2018-09-01T02:58:21.489Z,75.14
2018-09-01T02:59:21.477Z,75.45
2018-09-01T03:00:21.464Z,75.14
2018-09-01T03:01:21.525Z,75.24
2018-09-01T03:02:22.047Z,75.68
2018-09-01T03:03:21.436Z,75.45
2018-09-01T03:04:21.426Z,75.75
2018-09-01T03:05:21.415Z,76.37
2018-09-01T03:06:21.475Z,76.26
2018-09-01T03:07:21.393Z,76.16
2018-09-01T03:08:21.381Z,75.45
2018-09-01T03:09:21.378Z,76.16
2018-09-01T03:10:21.364Z,76.16
2018-09-01T03:11:21.420Z,76.16
2018-09-01T03:12:21.340Z,75.45
2018-09-01T03:13:21.331Z,76.50
2018-09-01T03:14:21.318Z,76.40
2018-09-01T03:15:21.306Z,76.50
2018-09-01T03:16:21.365Z,76.50
2018-09-01T03:17:21.287Z,76.40
2018-09-01T03:18:21.281Z,76.50
2018-09-01T03:19:21.265Z,76.09
2018-09-01T03:20:21.257Z,76.81
2018-09-01T03:21:21.310Z,76.81
2018-09-01T03:22:21.235Z,76.71
2018-09-01T03:23:22.045Z,76.81
2018-09-01T03:24:21.215Z,77.22
2018-09-01T03:25:21.207Z,77.22
2018-09-01T03:26:21.268Z,76.81
2018-09-01T03:27:22.048Z,77.32
2018-09-01T03:28:21.173Z,77.22
2018-09-01T03:29:21.160Z,77.15
2018-09-01T03:30:21.156Z,76.71
2018-09-01T03:31:21.143Z,77.12
2018-09-01T03:32:21.620Z,77.76
2018-09-01T03:33:21.119Z,77.87
2018-09-01T03:34:21.109Z,76.95
2018-09-01T03:35:21.096Z,77.26
2018-09-01T03:36:21.088Z,77.87
2018-09-01T03:37:21.147Z,77.87
2018-09-01T03:38:21.063Z,77.97
2018-09-01T03:39:21.058Z,77.26
2018-09-01T03:40:21.050Z,77.67
2018-09-01T03:41:21.033Z,78.17
2018-09-01T03:42:21.091Z,78.28
2018-09-01T03:43:21.010Z,77.87
2018-09-01T03:44:21.540Z,77.87
2018-09-01T03:45:20.991Z,77.76
2018-09-01T03:46:20.986Z,78.08
2018-09-01T03:47:21.046Z,77.97
2018-09-01T03:48:20.962Z,78.08
2018-09-01T03:49:20.955Z,78.63
2018-09-01T03:50:20.941Z,79.54
2018-09-01T03:51:20.930Z,78.63
2018-09-01T03:52:20.983Z,78.69
2018-09-01T03:53:20.908Z,78.21
2018-09-01T03:54:20.958Z,78.72
2018-09-01T03:55:20.889Z,78.63
2018-09-01T03:56:20.875Z,78.93
2018-09-01T03:57:20.943Z,79.03
2018-09-01T03:58:20.854Z,78.42
2018-09-01T03:59:20.843Z,78.93
2018-09-01T04:00:20.834Z,78.72
2018-09-01T04:01:20.822Z,78.42
2018-09-01T04:02:20.883Z,79.13
2018-09-01T04:03:20.801Z,78.52
2018-09-01T04:04:20.792Z,78.66
2018-09-01T04:05:21.545Z,78.76
2018-09-01T04:06:20.776Z,78.11
2018-09-01T04:07:29.160Z,79.38
2018-09-01T04:08:28.945Z,78.45
2018-09-01T04:09:28.846Z,76.88
2018-09-01T04:10:20.728Z,78.31
2018-09-01T04:11:20.718Z,79.44
2018-09-01T04:12:20.772Z,78.56
2018-09-01T04:13:20.701Z,78.56
2018-09-01T04:14:20.687Z,78.63
2018-09-01T04:15:20.674Z,79.24
2018-09-01T04:16:20.662Z,79.38
2018-09-01T04:17:28.869Z,79.07
2018-09-01T04:18:29.206Z,79.38
2018-09-01T04:19:20.635Z,78.76
2018-09-01T04:20:20.631Z,79.38
2018-09-01T04:21:20.613Z,78.66
2018-09-01T04:22:20.665Z,79.27
2018-09-01T04:23:20.590Z,78.45
2018-09-01T04:24:20.577Z,78.76
2018-09-01T04:25:20.566Z,79.38
2018-09-01T04:26:20.558Z,78.15
2018-09-01T04:27:20.617Z,78.25
2018-09-01T04:28:21.214Z,78.76
2018-09-01T04:29:21.216Z,79.17
2018-09-01T04:30:20.519Z,79.38
2018-09-01T04:31:20.505Z,78.86
2018-09-01T04:32:20.568Z,79.03
2018-09-01T04:33:20.484Z,78.76
2018-09-01T04:34:20.499Z,77.94
2018-09-01T04:35:20.468Z,78.05
2018-09-01T04:36:20.450Z,79.38
2018-09-01T04:37:20.506Z,79.48
2018-09-01T04:38:20.436Z,78.76
2018-09-01T04:39:20.425Z,79.17
2018-09-01T04:40:20.414Z,79.27
2018-09-01T04:41:20.398Z,79.48
2018-09-01T04:42:20.471Z,79.27
2018-09-01T04:43:20.378Z,79.38
2018-09-01T04:44:20.381Z,79.27
2018-09-01T04:45:20.361Z,79.27
2018-09-01T04:46:20.348Z,79.79
2018-09-01T04:47:20.407Z,79.58
2018-09-01T04:48:20.328Z,79.17
2018-09-01T04:49:20.314Z,79.27
2018-09-01T04:50:21.208Z,79.38
2018-09-01T04:51:20.295Z,79.11
2018-09-01T04:52:20.352Z,79.38
2018-09-01T04:53:20.275Z,79.21
2018-09-01T04:54:20.265Z,79.38
2018-09-01T04:55:20.253Z,79.38
2018-09-01T04:56:20.243Z,79.68
2018-09-01T04:57:20.301Z,79.31
2018-09-01T04:58:20.223Z,78.56
2018-09-01T04:59:20.210Z,79.27
2018-09-01T05:00:20.207Z,79.68
2018-09-01T05:01:20.256Z,78.86
2018-09-01T05:02:20.243Z,79.07
2018-09-01T05:03:20.165Z,78.70
2018-09-01T05:04:20.160Z,79.27
2018-09-01T05:05:20.146Z,78.86
2018-09-01T05:06:20.137Z,78.39
2018-09-01T05:07:20.193Z,78.49
2018-09-01T05:08:20.116Z,78.80
2018-09-01T05:09:20.102Z,78.59
2018-09-01T05:10:20.094Z,79.27
2018-09-01T05:11:20.706Z,79.58
2018-09-01T05:12:20.072Z,80.09
2018-09-01T05:13:20.126Z,79.79
2018-09-01T05:14:20.052Z,79.38
2018-09-01T05:15:20.041Z,79.89
2018-09-01T05:16:20.032Z,80.30
2018-09-01T05:17:20.022Z,79.89
2018-09-01T05:18:20.076Z,79.68
2018-09-01T05:19:20.000Z,78.56
2018-09-01T05:20:19.991Z,79.07
2018-09-01T05:21:19.985Z,79.48
2018-09-01T05:22:19.967Z,79.38
2018-09-01T05:23:20.024Z,79.31
2018-09-01T05:24:19.957Z,79.27
2018-09-01T05:25:19.933Z,79.27
2018-09-01T05:26:19.925Z,78.86
2018-09-01T05:27:19.911Z,79.38
2018-09-01T05:28:19.971Z,78.86
2018-09-01T05:29:19.894Z,79.27
2018-09-01T05:30:19.883Z,79.27
2018-09-01T05:31:19.872Z,78.35
2018-09-01T05:32:20.704Z,76.10
2018-09-01T05:33:19.921Z,76.20
2018-09-01T05:34:19.836Z,78.25
2018-09-01T05:35:19.825Z,79.17
2018-09-01T05:36:19.821Z,79.96
2018-09-01T05:37:19.805Z,80.09
2018-09-01T05:38:19.866Z,79.79
2018-09-01T05:39:19.788Z,79.68
2018-09-01T05:40:19.775Z,79.75
2018-09-01T05:41:19.766Z,80.46
2018-09-01T05:42:19.758Z,80.36
2018-09-01T05:43:19.811Z,81.08
2018-09-01T05:44:19.733Z,81.01
2018-09-01T05:45:19.722Z,81.18
2018-09-01T05:46:19.714Z,80.98
2018-09-01T05:47:19.700Z,81.79
2018-09-01T05:48:19.758Z,81.90
2018-09-01T05:49:19.681Z,80.94
2018-09-01T05:50:19.670Z,80.74
2018-09-01T05:51:19.668Z,80.67
2018-09-01T05:52:19.660Z,80.63
2018-09-01T05:53:19.782Z,80.53
2018-09-01T05:54:19.631Z,79.82
2018-09-01T05:55:19.617Z,80.63
2018-09-01T05:56:19.606Z,78.69
2018-09-01T05:57:19.595Z,78.38
2018-09-01T05:58:19.772Z,78.28
2018-09-01T05:59:19.576Z,78.28
2018-09-01T06:00:19.575Z,79.61
2018-09-01T06:01:19.567Z,78.89
2018-09-01T06:02:19.542Z,79.50
2018-09-01T06:03:19.600Z,79.68
2018-09-01T06:04:19.523Z,78.65
2018-09-01T06:05:19.515Z,78.65
2018-09-01T06:06:19.601Z,79.16
2018-09-01T06:07:19.490Z,77.94
2018-09-01T06:08:19.545Z,78.24
2018-09-01T06:09:19.468Z,79.68
2018-09-01T06:10:19.461Z,79.57
2018-09-01T06:11:19.454Z,79.84
2018-09-01T06:12:19.434Z,80.39
2018-09-01T06:13:19.493Z,79.88
2018-09-01T06:14:20.197Z,80.56
2018-09-01T06:15:19.404Z,79.74
2018-09-01T06:16:19.402Z,79.84
2018-09-01T06:17:19.388Z,79.57
2018-09-01T06:18:19.440Z,79.53
2018-09-01T06:19:19.458Z,79.53
2018-09-01T06:20:19.357Z,79.74
2018-09-01T06:21:19.344Z,79.60
2018-09-01T06:22:19.339Z,79.09
2018-09-01T06:23:19.388Z,79.13
2018-09-01T06:24:19.311Z,78.99
2018-09-01T06:25:19.302Z,79.29
2018-09-01T06:26:19.294Z,78.99
2018-09-01T06:27:19.280Z,79.09
2018-09-01T06:28:19.332Z,78.88
2018-09-01T06:29:19.254Z,78.58
2018-09-01T06:30:19.332Z,78.64
2018-09-01T06:31:19.233Z,78.03
2018-09-01T06:32:19.224Z,78.44
2018-09-01T06:33:19.282Z,78.34
2018-09-01T06:34:19.224Z,78.75
2018-09-01T06:35:19.692Z,79.16
2018-09-01T06:36:19.185Z,79.05
2018-09-01T06:37:19.169Z,78.75
2018-09-01T06:38:19.234Z,78.23
2018-09-01T06:39:19.150Z,77.72
2018-09-01T06:40:19.141Z,78.13
2018-09-01T06:41:19.133Z,77.69
2018-09-01T06:42:19.120Z,77.79
2018-09-01T06:43:19.178Z,77.59
2018-09-01T06:44:19.097Z,77.69
2018-09-01T06:45:19.089Z,78.50
2018-09-01T06:46:19.078Z,77.65
2018-09-01T06:47:19.064Z,77.86
2018-09-01T06:48:19.120Z,77.75
2018-09-01T06:49:19.693Z,77.86
2018-09-01T06:50:19.034Z,77.65
2018-09-01T06:51:19.039Z,77.72
2018-09-01T06:52:19.022Z,76.66
2018-09-01T06:53:19.072Z,76.56
2018-09-01T06:54:18.993Z,75.67
2018-09-01T06:55:18.984Z,73.77
2018-09-01T06:56:19.267Z,72.11
2018-09-01T06:57:18.959Z,71.43
2018-09-01T06:58:19.017Z,70.18
2018-09-01T06:59:19.005Z,68.83
2018-09-01T07:00:18.926Z,68.49
2018-09-01T07:01:18.915Z,67.58
2018-09-01T07:02:18.906Z,66.13
2018-09-01T07:03:18.893Z,66.30
2018-09-01T07:04:18.950Z,65.45
2018-09-01T07:05:18.876Z,64.51
2018-09-01T07:06:18.865Z,64.11
2018-09-01T07:07:18.854Z,63.27
2018-09-01T07:08:18.840Z,63.44
2018-09-01T07:09:18.895Z,62.43
2018-09-01T07:10:18.823Z,61.96
2018-09-01T07:11:18.810Z,61.16
2018-09-01T07:12:18.799Z,60.52
2018-09-01T07:13:18.790Z,59.71
2018-09-01T07:14:18.843Z,59.89
2018-09-01T07:15:18.766Z,59.56
2018-09-01T07:16:18.758Z,58.34
2018-09-01T07:17:19.690Z,58.42
2018-09-01T07:18:18.735Z,58.42
2018-09-01T07:19:18.790Z,57.18
2018-09-01T07:20:18.716Z,57.48
2018-09-01T07:21:18.702Z,57.78
2018-09-01T07:22:18.691Z,56.65
2018-09-01T07:23:18.683Z,56.75
2018-09-01T07:24:18.741Z,56.45
2018-09-01T07:25:18.661Z,56.22
2018-09-01T07:26:18.652Z,55.82
2018-09-01T07:27:18.639Z,55.89
2018-09-01T07:28:18.631Z,55.36
2018-09-01T07:29:18.689Z,54.83
2018-09-01T07:30:18.685Z,53.80
2018-09-01T07:31:18.995Z,53.20
2018-09-01T07:32:18.597Z,52.89
2018-09-01T07:33:18.578Z,53.07
2018-09-01T07:34:18.636Z,52.77
2018-09-01T07:35:18.558Z,52.55
2018-09-01T07:36:18.548Z,52.55
2018-09-01T07:37:18.536Z,52.24
2018-09-01T07:38:19.193Z,52.22
2018-09-01T07:39:18.583Z,51.01
2018-09-01T07:40:18.506Z,51.11
2018-09-01T07:41:18.498Z,50.68
2018-09-01T07:42:18.513Z,50.86
2018-09-01T07:43:18.486Z,50.86
2018-09-01T07:44:18.528Z,49.43
2018-09-01T07:45:18.466Z,49.74
2018-09-01T07:46:18.445Z,50.21
2018-09-01T07:47:18.434Z,50.21
2018-09-01T07:48:18.420Z,49.58
2018-09-01T07:49:18.480Z,49.29
2018-09-01T07:50:18.401Z,48.69
2018-09-01T07:51:18.389Z,48.46
2018-09-01T07:52:18.384Z,48.86
2018-09-01T07:53:18.373Z,48.54
2018-09-01T07:54:18.425Z,47.44
2018-09-01T07:55:18.350Z,47.61
2018-09-01T07:56:18.416Z,46.92
2018-09-01T07:57:25.873Z,47.02
2018-09-01T07:58:18.317Z,47.02
2018-09-01T07:59:18.804Z,46.92
2018-09-01T08:00:18.353Z,47.22
2018-09-01T08:01:18.290Z,46.80
2018-09-01T08:02:18.279Z,46.39
2018-09-01T08:03:18.271Z,45.67
2018-09-01T08:04:18.349Z,45.27
2018-09-01T08:05:18.247Z,45.35
2018-09-01T08:06:18.237Z,44.95
2018-09-01T08:07:18.280Z,44.53
2018-09-01T08:08:18.218Z,44.03
2018-09-01T08:09:18.278Z,44.41
2018-09-01T08:10:18.200Z,44.31
2018-09-01T08:11:18.190Z,43.09
2018-09-01T08:12:18.176Z,42.49
2018-09-01T08:13:18.169Z,42.40
2018-09-01T08:14:18.286Z,42.27
2018-09-01T08:15:18.152Z,42.97
2018-09-01T08:16:18.137Z,43.07
2018-09-01T08:17:18.144Z,42.37
2018-09-01T08:18:25.652Z,42.05
2018-09-01T08:19:18.172Z,42.23
2018-09-01T08:20:18.096Z,41.61
2018-09-01T08:21:18.087Z,41.61
2018-09-01T08:22:18.078Z,40.40
2018-09-01T08:23:18.070Z,39.80
2018-09-01T08:24:18.125Z,40.00
2018-09-01T08:25:18.054Z,40.58
2018-09-01T08:26:18.038Z,40.18
2018-09-01T08:27:18.029Z,40.06
2018-09-01T08:28:18.018Z,40.36
2018-09-01T08:29:18.076Z,40.34
2018-09-01T08:30:18.006Z,39.37
2018-09-01T08:31:17.989Z,38.93
2018-09-01T08:32:17.982Z,39.23
2018-09-01T08:33:17.976Z,38.73
2018-09-01T08:34:18.023Z,38.34
2018-09-01T08:35:17.948Z,38.22
2018-09-01T08:36:17.945Z,38.92
2018-09-01T08:37:17.931Z,39.21
2018-09-01T08:38:17.928Z,39.90
2018-09-01T08:39:18.346Z,38.52
2018-09-01T08:40:18.001Z,37.30
2018-09-01T08:41:17.898Z,38.88
2018-09-01T08:42:17.884Z,36.99
2018-09-01T08:43:17.876Z,37.69
2018-09-01T08:44:17.977Z,38.56
2018-09-01T08:45:17.877Z,37.17
2018-09-01T08:46:17.851Z,37.26
2018-09-01T08:47:17.836Z,37.53
2018-09-01T08:48:17.828Z,37.73
2018-09-01T08:49:17.883Z,37.43
2018-09-01T08:50:17.809Z,36.52
2018-09-01T08:51:17.800Z,36.62
2018-09-01T08:52:17.793Z,36.23
2018-09-01T08:53:17.789Z,36.01
2018-09-01T08:54:17.842Z,35.00
2018-09-01T08:55:17.762Z,34.31
2018-09-01T08:56:17.755Z,34.79
2018-09-01T08:57:17.745Z,34.89
2018-09-01T08:58:17.737Z,34.97
2018-09-01T08:59:17.731Z,34.97
2018-09-01T09:00:17.853Z,34.56
2018-09-01T09:01:17.706Z,34.46
2018-09-01T09:02:17.700Z,32.77
2018-09-01T09:03:17.687Z,33.36
2018-09-01T09:04:17.684Z,33.95
2018-09-01T09:05:17.731Z,32.97
2018-09-01T09:06:17.659Z,33.85
2018-09-01T09:07:17.653Z,34.03
2018-09-01T09:08:17.642Z,33.44
2018-09-01T09:09:17.639Z,33.15
2018-09-01T09:10:17.683Z,32.84
2018-09-01T09:11:17.614Z,33.11
2018-09-01T09:12:17.608Z,32.13
2018-09-01T09:13:17.598Z,32.23
2018-09-01T09:14:17.592Z,33.01
2018-09-01T09:15:17.645Z,32.14
2018-09-01T09:16:17.575Z,32.93
2018-09-01T09:17:17.562Z,32.73
2018-09-01T09:18:17.556Z,33.22
2018-09-01T09:19:17.547Z,32.73
2018-09-01T09:20:17.597Z,32.23
2018-09-01T09:21:18.272Z,32.82
2018-09-01T09:22:17.517Z,32.60
2018-09-01T09:23:17.509Z,31.51
2018-09-01T09:24:17.497Z,31.31
2018-09-01T09:25:17.556Z,30.80
2018-09-01T09:26:17.480Z,31.60
2018-09-01T09:27:17.475Z,31.20
2018-09-01T09:28:17.463Z,30.71
2018-09-01T09:29:17.458Z,30.88
2018-09-01T09:30:17.508Z,29.90
2018-09-01T09:31:17.435Z,30.87
2018-09-01T09:32:17.433Z,29.58
2018-09-01T09:33:17.425Z,30.07
2018-09-01T09:34:17.413Z,29.68
2018-09-01T09:35:17.465Z,29.07
2018-09-01T09:36:17.394Z,29.47
2018-09-01T09:37:17.385Z,28.29
2018-09-01T09:38:17.377Z,27.69
2018-09-01T09:39:17.367Z,27.98
2018-09-01T09:40:17.422Z,28.36
2018-09-01T09:41:17.355Z,27.08
2018-09-01T09:42:18.282Z,27.37
2018-09-01T09:43:17.338Z,27.97
2018-09-01T09:44:17.324Z,27.46
2018-09-01T09:45:17.382Z,27.95
2018-09-01T09:46:17.304Z,27.64
2018-09-01T09:47:17.299Z,27.15
2018-09-01T09:48:17.293Z,27.44
2018-09-01T09:49:17.285Z,26.15
2018-09-01T09:50:17.334Z,26.82
2018-09-01T09:51:17.269Z,25.26
2018-09-01T09:52:17.257Z,25.73
2018-09-01T09:53:17.248Z,26.32
2018-09-01T09:54:17.240Z,24.25
2018-09-01T09:55:17.298Z,25.52
2018-09-01T09:56:17.229Z,23.96
2018-09-01T09:57:17.217Z,23.26
2018-09-01T09:58:17.264Z,25.32
2018-09-01T09:59:17.198Z,25.61
2018-09-01T10:00:17.256Z,25.22
2018-09-01T10:01:17.184Z,26.20
2018-09-01T10:02:17.175Z,24.32
2018-09-01T10:03:17.774Z,25.21
2018-09-01T10:04:17.157Z,24.61
2018-09-01T10:05:17.219Z,25.00
2018-09-01T10:06:17.139Z,23.52
2018-09-01T10:07:17.139Z,23.33
2018-09-01T10:08:17.128Z,23.05
2018-09-01T10:09:17.125Z,24.12
2018-09-01T10:10:17.171Z,23.44
2018-09-01T10:11:17.100Z,24.01
2018-09-01T10:12:17.096Z,23.82
2018-09-01T10:13:17.086Z,23.22
2018-09-01T10:14:17.079Z,23.02
2018-09-01T10:15:17.135Z,22.23
2018-09-01T10:16:17.064Z,22.41
2018-09-01T10:17:17.058Z,22.79
2018-09-01T10:18:17.048Z,22.39
2018-09-01T10:19:17.036Z,23.07
2018-09-01T10:20:17.192Z,22.17
2018-09-01T10:21:17.026Z,21.98
2018-09-01T10:22:17.016Z,20.91
2018-09-01T10:23:17.008Z,20.83
2018-09-01T10:24:17.773Z,21.51
2018-09-01T10:25:16.993Z,20.92
2018-09-01T10:26:17.043Z,22.17
2018-09-01T10:27:16.974Z,21.30
2018-09-01T10:28:16.968Z,21.99
2018-09-01T10:29:16.957Z,21.80
2018-09-01T10:30:16.952Z,21.62
2018-09-01T10:31:17.001Z,22.23
2018-09-01T10:32:16.937Z,22.56
2018-09-01T10:33:16.931Z,24.27
2018-09-01T10:34:16.923Z,25.20
2018-09-01T10:35:16.917Z,24.51
2018-09-01T10:36:16.970Z,24.98
2018-09-01T10:37:16.895Z,24.44
2018-09-01T10:38:16.893Z,22.17
2018-09-01T10:39:16.875Z,23.02
2018-09-01T10:40:16.867Z,22.22
2018-09-01T10:41:16.922Z,22.20
2018-09-01T10:42:16.855Z,21.89
2018-09-01T10:43:16.843Z,20.62
2018-09-01T10:44:16.834Z,21.09
2018-09-01T10:45:19.775Z,21.39
2018-09-01T10:46:16.883Z,20.71
2018-09-01T10:47:16.808Z,20.70
2018-09-01T10:48:16.805Z,20.49
2018-09-01T10:49:16.799Z,20.88
2018-09-01T10:50:16.786Z,19.42
2018-09-01T10:51:16.843Z,19.98
2018-09-01T10:52:16.768Z,19.20
2018-09-01T10:53:16.774Z,19.58
2018-09-01T10:54:16.755Z,19.00
2018-09-01T10:55:16.745Z,18.79
2018-09-01T10:56:16.800Z,18.22
2018-09-01T10:57:16.729Z,18.61
2018-09-01T10:58:16.726Z,19.01
2018-09-01T10:59:16.784Z,18.80
2018-09-01T11:00:16.707Z,19.98
2018-09-01T11:01:16.762Z,19.59
2018-09-01T11:02:16.699Z,18.43
2018-09-01T11:03:16.696Z,18.33
2018-09-01T11:04:16.681Z,19.30
2018-09-01T11:05:16.673Z,18.52
2018-09-01T11:06:16.842Z,19.19
2018-09-01T11:07:16.656Z,18.51
2018-09-01T11:08:16.656Z,18.98
2018-09-01T11:09:16.639Z,18.69
2018-09-01T11:10:16.634Z,17.92
2018-09-01T11:11:16.688Z,19.58
2018-09-01T11:12:16.624Z,18.60
2018-09-01T11:13:16.613Z,18.31
2018-09-01T11:14:16.602Z,18.99
2018-09-01T11:15:16.597Z,18.02
2018-09-01T11:16:16.665Z,18.31
2018-09-01T11:17:16.585Z,18.40
2018-09-01T11:18:16.576Z,18.98
2018-09-01T11:19:16.574Z,18.40
2018-09-01T11:20:16.627Z,19.47
2018-09-01T11:21:16.612Z,17.72
2018-09-01T11:22:16.546Z,18.98
2018-09-01T11:23:16.548Z,17.81
2018-09-01T11:24:16.533Z,18.96
2018-09-01T11:25:16.522Z,17.98
2018-09-01T11:26:16.573Z,17.99
2018-09-01T11:27:17.264Z,17.89
2018-09-01T11:28:16.497Z,18.49
2018-09-01T11:29:16.489Z,19.68
2018-09-01T11:30:16.488Z,18.51
2018-09-01T11:31:16.549Z,18.98
2018-09-01T11:32:16.469Z,18.40
2018-09-01T11:33:16.471Z,18.41
2018-09-01T11:34:16.456Z,18.30
2018-09-01T11:35:24.561Z,18.49
2018-09-01T11:36:24.647Z,17.52
2018-09-01T11:37:24.576Z,18.95
2018-09-01T11:38:16.422Z,19.68
2018-09-01T11:39:16.415Z,19.60
2018-09-01T11:40:16.470Z,19.29
2018-09-01T11:41:16.459Z,19.16
2018-09-01T11:42:16.410Z,18.75
2018-09-01T11:43:16.429Z,18.54
2018-09-01T11:44:16.377Z,18.53
2018-09-01T11:45:16.366Z,17.74
2018-09-01T11:46:16.421Z,17.25
2018-09-01T11:47:24.435Z,17.84
2018-09-01T11:48:16.343Z,17.94
2018-09-01T11:49:16.337Z,17.64
2018-09-01T11:50:16.332Z,17.93
2018-09-01T11:51:16.387Z,18.41
2018-09-01T11:52:16.325Z,17.07
2018-09-01T11:53:16.489Z,18.24
2018-09-01T11:54:16.308Z,18.24
2018-09-01T11:55:16.293Z,18.52
2018-09-01T11:56:16.493Z,18.13
2018-09-01T11:57:16.279Z,19.00
2018-09-01T11:58:16.270Z,17.35
2018-09-01T11:59:16.265Z,17.14
2018-09-01T12:00:16.254Z,16.75
2018-09-01T12:01:16.323Z,17.52
2018-09-01T12:02:16.307Z,17.03
2018-09-01T12:03:16.231Z,15.89
2018-09-01T12:04:16.228Z,17.97
2018-09-01T12:05:16.217Z,17.97
2018-09-01T12:06:16.208Z,17.57
2018-09-01T12:07:16.266Z,18.35
2018-09-01T12:08:16.197Z,17.65
2018-09-01T12:09:16.198Z,16.86
2018-09-01T12:10:16.193Z,17.34
2018-09-01T12:11:16.172Z,16.75
2018-09-01T12:12:16.224Z,17.24
2018-09-01T12:13:16.155Z,16.27
2018-09-01T12:14:16.147Z,16.26
2018-09-01T12:15:16.143Z,15.48
2018-09-01T12:16:16.135Z,16.24
2018-09-01T12:17:16.485Z,16.84
2018-09-01T12:18:16.119Z,16.16
2018-09-01T12:19:16.113Z,15.75
2018-09-01T12:20:16.105Z,16.82
2018-09-01T12:21:16.096Z,15.85
2018-09-01T12:22:16.209Z,16.04
2018-09-01T12:23:16.082Z,17.01
2018-09-01T12:24:16.079Z,15.48
2018-09-01T12:25:16.066Z,17.46
2018-09-01T12:26:16.062Z,17.68
2018-09-01T12:27:16.115Z,17.97
2018-09-01T12:28:16.101Z,16.89
2018-09-01T12:29:16.043Z,18.15
2018-09-01T12:30:16.031Z,17.36
2018-09-01T12:31:16.030Z,18.13
2018-09-01T12:32:16.073Z,17.05
2018-09-01T12:33:16.009Z,16.75
2018-09-01T12:34:16.000Z,15.69
2018-09-01T12:35:15.995Z,16.85
2018-09-01T12:36:16.044Z,16.27
2018-09-01T12:37:16.039Z,16.06
2018-09-01T12:38:16.919Z,16.35
2018-09-01T12:39:15.960Z,16.06
2018-09-01T12:40:15.955Z,15.88
2018-09-01T12:41:15.949Z,17.04
2018-09-01T12:42:16.005Z,15.87
2018-09-01T12:43:15.933Z,16.16
2018-09-01T12:44:15.924Z,15.95
2018-09-01T12:45:15.921Z,15.56
2018-09-01T12:46:15.908Z,15.56
2018-09-01T12:47:15.968Z,15.56
2018-09-01T12:48:15.909Z,16.24
2018-09-01T12:49:15.887Z,16.52
2018-09-01T12:50:15.881Z,15.84
2018-09-01T12:51:15.873Z,15.64
2018-09-01T12:52:15.957Z,16.91